createdAt,value
2023-01-04T00:01:10.546Z,0
2023-01-04T00:03:12.399Z,2.527
2023-01-04T00:05:13.440Z,0
2023-01-04T00:07:15.073Z,0
2023-01-04T00:09:16.540Z,0
2023-01-04T00:11:18.416Z,1.544
2023-01-04T00:13:20.175Z,0
2023-01-04T00:15:21.207Z,1.544
2023-01-04T00:17:22.340Z,0.28
2023-01-04T00:19:24.026Z,0
2023-01-04T00:21:25.749Z,1.965
2023-01-04T00:23:27.702Z,0
2023-01-04T00:25:29.432Z,0
2023-01-04T00:29:32.771Z,0
2023-01-04T00:31:34.797Z,1.965
2023-01-04T00:33:36.532Z,0.421
2023-01-04T00:35:45.017Z,0
2023-01-04T00:39:40.989Z,0.14
2023-01-04T00:42:02.897Z,4.773
2023-01-04T00:43:43.646Z,2.527
2023-01-04T00:45:45.034Z,3.229
2023-01-04T00:47:46.567Z,2.386
2023-01-04T00:49:48.320Z,0.842
2023-01-04T00:51:49.509Z,0.421
2023-01-04T00:53:51.016Z,1.684
2023-01-04T00:55:52.810Z,0.702
2023-01-04T00:57:54.322Z,0.561
2023-01-04T01:01:57.603Z,0.421
2023-01-04T01:03:59.277Z,0.14
2023-01-04T01:06:00.297Z,0
2023-01-04T01:08:01.578Z,0
2023-01-04T01:12:04.980Z,1.263
2023-01-04T01:14:06.243Z,0
2023-01-04T01:16:08.196Z,0.14
2023-01-04T01:18:09.074Z,3.65
2023-01-04T01:22:12.206Z,1.263
2023-01-04T01:24:13.227Z,0.28
2023-01-04T01:26:15.247Z,0
2023-01-04T01:28:16.599Z,0
2023-01-04T01:30:18.399Z,0.982
2023-01-04T01:32:20.262Z,0
2023-01-04T01:34:22.219Z,1.825
2023-01-04T01:36:23.800Z,1.123
2023-01-04T01:38:25.147Z,2.527
2023-01-04T01:40:27.012Z,0
2023-01-04T01:42:28.625Z,0
2023-01-04T01:44:30.461Z,0
2023-01-04T01:46:32.151Z,0
2023-01-04T01:48:33.721Z,2.808
2023-01-04T01:50:35.440Z,1.404
2023-01-04T01:54:38.600Z,0
2023-01-04T01:56:40.387Z,0
2023-01-04T01:58:41.871Z,1.123
2023-01-04T02:00:43.542Z,0.14
2023-01-04T02:04:46.595Z,0.14
2023-01-04T02:06:48.051Z,0
2023-01-04T02:08:49.354Z,0
2023-01-04T02:10:50.732Z,0
2023-01-04T02:12:52.592Z,0
2023-01-04T02:14:53.892Z,0
2023-01-04T02:16:54.909Z,0
2023-01-04T02:18:56.792Z,0.842
2023-01-04T02:20:58.298Z,0.982
2023-01-04T02:22:59.543Z,0.702
2023-01-04T02:25:00.837Z,2.246
2023-01-04T02:27:02.695Z,0.421
2023-01-04T02:29:04.426Z,0.982
2023-01-04T02:31:06.029Z,2.948
2023-01-04T02:33:07.132Z,2.667
2023-01-04T02:35:08.678Z,0.14
2023-01-04T02:37:10.560Z,0.28
2023-01-04T02:39:12.241Z,0.982
2023-01-04T02:41:14.169Z,0
2023-01-04T02:43:16.188Z,2.106
2023-01-04T02:47:19.121Z,1.544
2023-01-04T02:49:20.296Z,0.702
2023-01-04T02:51:21.619Z,0
2023-01-04T02:53:23.029Z,0
2023-01-04T02:55:24.347Z,1.544
2023-01-04T02:57:26.329Z,1.965
2023-01-04T02:59:27.472Z,0
2023-01-04T03:01:28.528Z,2.106
2023-01-04T03:03:30.123Z,0.421
2023-01-04T03:05:31.433Z,0
2023-01-04T03:07:32.836Z,0
2023-01-04T03:09:34.611Z,0
2023-01-04T03:11:36.264Z,0
2023-01-04T03:13:37.401Z,0
2023-01-04T03:15:38.825Z,0
2023-01-04T03:17:40.044Z,0.982
2023-01-04T03:19:41.594Z,0.982
2023-01-04T03:21:42.934Z,0
2023-01-04T03:23:44.672Z,0
2023-01-04T03:25:46.239Z,0
2023-01-04T03:27:47.416Z,0
2023-01-04T03:29:48.760Z,1.684
2023-01-04T03:31:50.823Z,0.14
2023-01-04T03:33:51.793Z,0
2023-01-04T03:35:53.657Z,0.28
2023-01-04T03:37:54.698Z,0.421
2023-01-04T03:39:55.955Z,0
2023-01-04T03:41:56.968Z,2.106
2023-01-04T03:43:58.600Z,0
2023-01-04T03:44:42.468Z,1.684
2023-01-04T03:46:44.131Z,0.561
2023-01-04T03:48:45.455Z,0.421
2023-01-04T03:50:47.237Z,1.965
2023-01-04T03:52:48.811Z,0.14
2023-01-04T03:54:49.942Z,2.948
2023-01-04T03:56:51.477Z,0.28
2023-01-04T03:58:53.200Z,1.404
2023-01-04T04:00:54.425Z,1.684
2023-01-04T04:02:56.226Z,3.088
2023-01-04T04:04:57.807Z,2.948
2023-01-04T04:06:59.163Z,5.896
2023-01-04T04:09:00.152Z,3.51
2023-01-04T04:13:03.068Z,0.421
2023-01-04T04:15:04.899Z,1.965
2023-01-04T04:17:06.105Z,4.212
2023-01-04T04:19:08.722Z,1.684
2023-01-04T04:23:10.528Z,0
2023-01-04T04:25:12.550Z,0.702
2023-01-04T04:27:13.774Z,2.667
2023-01-04T04:29:14.971Z,1.684
2023-01-04T04:31:16.921Z,1.684
2023-01-04T04:35:19.375Z,2.386
2023-01-04T04:37:20.732Z,1.263
2023-01-04T04:39:21.808Z,0.28
2023-01-04T04:41:23.752Z,1.684
2023-01-04T04:45:26.605Z,0
2023-01-04T04:47:27.555Z,1.123
2023-01-04T04:49:29.480Z,1.825
2023-01-04T04:51:31.453Z,0.982
2023-01-04T04:55:34.773Z,1.263
2023-01-04T04:57:36.404Z,3.229
2023-01-04T04:59:37.534Z,0.702
2023-01-04T05:01:38.626Z,0.982
2023-01-04T05:05:41.381Z,3.369
2023-01-04T05:07:42.556Z,0
2023-01-04T05:09:43.838Z,0.28
2023-01-04T05:11:45.299Z,0
2023-01-04T05:13:46.405Z,0
2023-01-04T05:15:47.691Z,0.14
2023-01-04T05:17:49.000Z,1.263
2023-01-04T05:19:50.923Z,0
2023-01-04T05:21:51.998Z,0
2023-01-04T05:23:53.621Z,0.421
2023-01-04T05:25:55.483Z,0.14
2023-01-04T05:27:57.087Z,0.28
2023-01-04T05:29:58.315Z,0
2023-01-04T05:31:59.995Z,0
2023-01-04T05:34:01.134Z,0
2023-01-04T05:36:02.648Z,0
2023-01-04T05:38:04.548Z,0
2023-01-04T05:40:06.286Z,0
2023-01-04T05:42:07.404Z,2.667
2023-01-04T05:44:08.775Z,0
2023-01-04T05:46:10.133Z,0
2023-01-04T05:48:12.020Z,0
2023-01-04T05:50:13.693Z,0
2023-01-04T05:52:14.957Z,0
2023-01-04T05:54:21.046Z,1.123
2023-01-04T05:56:18.119Z,1.263
2023-01-04T05:58:19.369Z,2.527
2023-01-04T06:00:20.842Z,5.756
2023-01-04T06:02:23.051Z,0.842
2023-01-04T06:04:24.812Z,0.14
2023-01-04T06:06:26.312Z,1.965
2023-01-04T06:08:28.148Z,1.263
2023-01-04T06:10:29.412Z,1.123
2023-01-04T06:12:31.118Z,1.825
2023-01-04T06:14:32.210Z,4.212
2023-01-04T06:16:33.524Z,2.527
2023-01-04T06:20:36.163Z,2.527
2023-01-04T06:22:37.751Z,1.263
2023-01-04T06:24:38.896Z,3.369
2023-01-04T06:26:40.316Z,4.071
2023-01-04T06:28:41.690Z,6.177
2023-01-04T06:30:43.473Z,6.598
2023-01-04T06:32:44.961Z,5.756
2023-01-04T06:34:46.508Z,7.3
2023-01-04T06:36:47.935Z,6.598
2023-01-04T06:38:49.582Z,5.756
2023-01-04T06:40:50.782Z,8.143
2023-01-04T06:42:51.989Z,4.071
2023-01-04T06:44:53.649Z,1.544
2023-01-04T06:46:55.010Z,5.616
2023-01-04T06:48:56.510Z,4.773
2023-01-04T06:50:57.791Z,5.616
2023-01-04T06:52:59.365Z,3.65
2023-01-04T06:55:00.786Z,3.088
2023-01-04T06:57:02.076Z,3.65
2023-01-04T06:59:03.960Z,2.246
2023-01-04T07:01:05.732Z,3.65
2023-01-04T07:03:12.928Z,3.088
2023-01-04T07:05:09.034Z,6.177
2023-01-04T07:07:10.507Z,5.054
2023-01-04T07:09:12.369Z,7.16
2023-01-04T07:11:13.885Z,5.475
2023-01-04T07:13:15.922Z,3.51
2023-01-04T07:15:37.671Z,4.633
2023-01-04T07:17:21.369Z,3.931
2023-01-04T07:19:20.560Z,2.527
2023-01-04T07:21:22.248Z,6.458
2023-01-04T07:23:24.149Z,5.194
2023-01-04T07:25:25.207Z,6.037
2023-01-04T07:27:26.236Z,4.212
2023-01-04T07:29:27.908Z,5.194
2023-01-04T07:31:29.329Z,4.492
2023-01-04T07:33:30.512Z,5.335
2023-01-04T07:35:32.221Z,2.527
2023-01-04T07:37:33.950Z,1.684
2023-01-04T07:39:35.534Z,3.229
2023-01-04T07:41:37.051Z,3.51
2023-01-04T07:43:38.027Z,2.246
2023-01-04T07:45:39.739Z,1.404
2023-01-04T07:47:40.912Z,2.667
2023-01-04T07:49:42.514Z,0.982
2023-01-04T07:51:44.269Z,4.212
2023-01-04T07:53:45.838Z,0.561
2023-01-04T07:55:47.661Z,0.842
2023-01-04T07:57:49.168Z,0.982
2023-01-04T07:59:50.940Z,2.246
2023-01-04T08:01:52.767Z,1.404
2023-01-04T08:03:53.789Z,4.071
2023-01-04T08:05:55.407Z,6.598
2023-01-04T08:07:56.419Z,4.773
2023-01-04T08:09:57.753Z,2.948
2023-01-04T08:11:59.660Z,8.002
2023-01-04T08:14:01.197Z,8.143
2023-01-04T08:16:02.818Z,6.879
2023-01-04T08:18:03.896Z,6.318
2023-01-04T08:20:04.937Z,4.914
2023-01-04T08:22:06.749Z,10.249
2023-01-04T08:24:08.002Z,1.684
2023-01-04T08:26:09.415Z,5.054
2023-01-04T08:28:10.793Z,5.475
2023-01-04T08:30:12.309Z,7.441
2023-01-04T08:32:13.503Z,0.982
2023-01-04T08:34:14.685Z,4.352
2023-01-04T08:36:18.463Z,2.948
2023-01-04T08:38:55.964Z,3.229
2023-01-04T08:40:18.875Z,3.931
2023-01-04T08:42:28.358Z,1.684
2023-01-04T08:44:22.025Z,2.808
2023-01-04T08:46:23.183Z,7.862
2023-01-04T08:48:24.741Z,9.126
2023-01-04T08:50:26.163Z,1.263
2023-01-04T08:52:27.764Z,3.931
2023-01-04T08:54:29.283Z,4.633
2023-01-04T08:56:30.474Z,1.544
2023-01-04T08:58:32.309Z,7.02
2023-01-04T09:00:33.419Z,4.352
2023-01-04T09:02:34.987Z,6.739
2023-01-04T09:04:36.749Z,9.126
2023-01-04T09:06:38.075Z,8.143
2023-01-04T09:08:39.773Z,12.074
2023-01-04T09:10:41.505Z,4.773
2023-01-04T09:12:43.482Z,7.441
2023-01-04T09:16:46.050Z,8.424
2023-01-04T09:18:47.899Z,5.054
2023-01-04T09:20:49.183Z,9.687
2023-01-04T09:22:50.208Z,6.037
2023-01-04T09:26:53.039Z,5.896
2023-01-04T09:28:54.444Z,9.828
2023-01-04T09:30:56.215Z,4.352
2023-01-04T09:32:57.237Z,9.547
2023-01-04T09:34:58.444Z,6.177
2023-01-04T09:36:59.954Z,11.091
2023-01-04T09:39:01.219Z,9.126
2023-01-04T09:41:02.562Z,8.283
2023-01-04T09:43:19.742Z,6.177
2023-01-04T09:45:25.012Z,6.879
2023-01-04T09:47:06.475Z,4.492
2023-01-04T09:49:07.901Z,12.074
2023-01-04T09:51:09.720Z,4.492
2023-01-04T09:53:11.288Z,2.808
2023-01-04T09:55:38.494Z,1.263
2023-01-04T09:59:15.776Z,5.475
2023-01-04T10:01:17.179Z,3.369
2023-01-04T10:03:18.764Z,2.808
2023-01-04T10:05:20.103Z,8.283
2023-01-04T10:09:22.764Z,6.037
2023-01-04T10:11:23.924Z,8.424
2023-01-04T10:13:25.691Z,4.352
2023-01-04T10:15:26.830Z,0.842
2023-01-04T10:17:44.880Z,6.177
2023-01-04T10:21:33.761Z,3.931
2023-01-04T10:23:31.929Z,7.441
2023-01-04T10:25:33.615Z,3.65
2023-01-04T10:27:39.484Z,4.071
2023-01-04T10:29:36.404Z,5.335
2023-01-04T10:30:20.231Z,7.3
2023-01-04T10:32:21.215Z,4.352
2023-01-04T10:34:22.439Z,4.492
2023-01-04T10:36:24.361Z,6.598
2023-01-04T10:38:26.078Z,6.037
2023-01-04T10:40:27.544Z,3.51
2023-01-04T10:42:28.688Z,3.51
2023-01-04T10:44:29.668Z,5.616
2023-01-04T10:46:31.176Z,5.335
2023-01-04T10:48:32.737Z,2.667
2023-01-04T10:50:33.668Z,4.212
2023-01-04T10:52:34.630Z,3.369
2023-01-04T10:54:36.491Z,6.879
2023-01-04T10:56:37.526Z,5.896
2023-01-04T10:58:39.151Z,8.283
2023-01-04T11:00:40.876Z,8.845
2023-01-04T11:02:42.298Z,3.79
2023-01-04T11:04:43.562Z,5.896
2023-01-04T11:06:45.478Z,3.088
2023-01-04T11:08:46.497Z,2.667
2023-01-04T11:10:48.024Z,8.283
2023-01-04T11:12:49.143Z,10.67
2023-01-04T11:14:50.751Z,3.79
2023-01-04T11:16:52.360Z,11.091
2023-01-04T11:18:53.527Z,5.896
2023-01-04T11:20:55.061Z,7.722
2023-01-04T11:22:56.378Z,11.512
2023-01-04T11:25:33.542Z,9.266
2023-01-04T11:26:59.545Z,10.249
2023-01-04T11:29:00.452Z,12.074
2023-01-04T11:31:01.661Z,7.02
2023-01-04T11:35:04.699Z,9.266
2023-01-04T11:37:06.521Z,11.232
2023-01-04T11:39:07.988Z,5.616
2023-01-04T11:41:09.291Z,2.667
2023-01-04T11:45:12.029Z,5.756
2023-01-04T11:47:13.737Z,5.896
2023-01-04T11:49:14.880Z,4.914
2023-01-04T11:51:17.242Z,4.352
2023-01-04T11:53:17.106Z,8.002
2023-01-04T11:55:18.070Z,8.985
2023-01-04T11:57:19.886Z,8.283
2023-01-04T11:59:25.100Z,7.722
2023-01-04T12:01:23.399Z,8.704
2023-01-04T12:03:25.195Z,10.67
2023-01-04T12:05:29.879Z,4.212
2023-01-04T12:07:27.510Z,8.283
2023-01-04T12:09:29.419Z,6.879
2023-01-04T12:11:30.797Z,7.441
2023-01-04T12:13:32.601Z,4.352
2023-01-04T12:17:38.195Z,4.914
2023-01-04T12:19:36.925Z,7.581
2023-01-04T12:21:38.428Z,3.51
2023-01-04T12:23:39.538Z,4.071
2023-01-04T12:27:42.005Z,5.616
2023-01-04T12:29:43.162Z,11.372
2023-01-04T12:31:44.743Z,5.194
2023-01-04T12:33:46.554Z,4.633
2023-01-04T12:35:48.251Z,11.091
2023-01-04T12:37:49.167Z,7.722
2023-01-04T12:39:50.987Z,9.406
2023-01-04T12:41:52.453Z,8.704
2023-01-04T12:43:53.689Z,4.773
2023-01-04T12:45:55.260Z,7.441
2023-01-04T12:49:57.676Z,6.598
2023-01-04T12:52:20.673Z,5.054
2023-01-04T12:54:01.002Z,7.581
2023-01-04T12:56:02.401Z,10.81
2023-01-04T13:00:06.102Z,4.352
2023-01-04T13:02:07.866Z,6.598
2023-01-04T13:04:09.093Z,5.896
2023-01-04T13:06:10.068Z,5.616
2023-01-04T13:10:12.536Z,4.212
2023-01-04T13:12:13.615Z,9.406
2023-01-04T13:14:14.621Z,12.074
2023-01-04T13:16:15.868Z,9.828
2023-01-04T13:18:17.454Z,14.18
2023-01-04T13:20:18.639Z,9.406
2023-01-04T13:22:23.510Z,13.338
2023-01-04T13:24:21.070Z,8.564
2023-01-04T13:26:22.658Z,3.51
2023-01-04T13:28:23.730Z,5.054
2023-01-04T13:30:24.866Z,13.197
2023-01-04T13:32:26.312Z,8.283
2023-01-04T13:34:28.145Z,8.564
2023-01-04T13:36:29.062Z,5.896
2023-01-04T13:38:30.155Z,3.79
2023-01-04T13:40:31.979Z,10.53
2023-01-04T13:42:33.555Z,8.283
2023-01-04T13:44:52.089Z,7.16
2023-01-04T13:46:36.563Z,5.616
2023-01-04T13:48:38.451Z,10.67
2023-01-04T13:50:40.080Z,4.352
2023-01-04T13:52:59.792Z,5.194
2023-01-04T13:54:43.011Z,7.441
2023-01-04T13:56:46.148Z,7.441
2023-01-04T13:58:45.382Z,8.143
2023-01-04T14:00:47.040Z,6.458
2023-01-04T14:02:48.542Z,4.212
2023-01-04T14:04:50.119Z,5.194
2023-01-04T14:06:51.513Z,4.071
2023-01-04T14:08:53.404Z,5.335
2023-01-04T14:10:54.724Z,8.002
2023-01-04T14:12:56.296Z,7.441
2023-01-04T14:14:57.446Z,7.16
2023-01-04T14:16:58.746Z,4.071
2023-01-04T14:21:00.873Z,9.126
2023-01-04T14:23:02.367Z,9.968
2023-01-04T14:25:10.785Z,10.951
2023-01-04T14:27:05.668Z,8.002
2023-01-04T14:29:07.012Z,12.074
2023-01-04T14:31:08.737Z,12.776
2023-01-04T14:33:09.970Z,7.722
2023-01-04T14:35:11.795Z,6.879
2023-01-04T14:37:13.213Z,6.037
2023-01-04T14:41:15.906Z,11.232
2023-01-04T14:43:17.588Z,8.283
2023-01-04T14:45:18.731Z,9.547
2023-01-04T14:47:19.989Z,5.616
2023-01-04T14:51:23.390Z,3.229
2023-01-04T14:53:25.211Z,5.616
2023-01-04T14:55:26.246Z,8.424
2023-01-04T14:57:28.135Z,8.283
2023-01-04T14:59:29.751Z,7.16
2023-01-04T15:03:31.944Z,13.478
2023-01-04T15:05:35.787Z,14.742
2023-01-04T15:07:34.235Z,10.249
2023-01-04T15:09:36.117Z,9.406
2023-01-04T15:13:39.706Z,6.739
2023-01-04T15:15:40.559Z,5.896
2023-01-04T15:17:41.579Z,9.266
2023-01-04T15:19:42.637Z,7.722
2023-01-04T15:23:46.037Z,8.283
2023-01-04T15:25:47.714Z,7.862
2023-01-04T15:27:49.196Z,6.739
2023-01-04T15:29:50.622Z,5.054
2023-01-04T15:33:53.115Z,9.547
2023-01-04T15:35:54.555Z,7.441
2023-01-04T15:37:56.084Z,10.81
2023-01-04T15:40:02.168Z,6.177
2023-01-04T15:41:59.307Z,4.352
2023-01-04T15:44:00.674Z,8.143
2023-01-04T15:46:02.076Z,7.441
2023-01-04T15:48:03.600Z,8.424
2023-01-04T15:50:04.851Z,14.461
2023-01-04T15:52:05.956Z,10.67
2023-01-04T15:54:06.912Z,10.951
2023-01-04T15:56:08.420Z,9.547
2023-01-04T15:58:09.679Z,10.53
2023-01-04T16:00:10.832Z,8.704
2023-01-04T16:02:11.907Z,6.318
2023-01-04T16:04:13.386Z,12.355
2023-01-04T16:06:15.168Z,14.18
2023-01-04T16:08:16.497Z,9.968
2023-01-04T16:10:18.095Z,10.108
2023-01-04T16:12:19.219Z,9.547
2023-01-04T16:14:20.038Z,5.054
2023-01-04T16:16:21.213Z,6.177
2023-01-04T16:18:22.689Z,12.355
2023-01-04T16:22:24.624Z,5.335
2023-01-04T16:24:59.912Z,9.968
2023-01-04T16:26:27.399Z,6.879
2023-01-04T16:28:28.613Z,5.616
2023-01-04T16:32:31.334Z,4.633
2023-01-04T16:34:33.043Z,10.249
2023-01-04T16:36:34.642Z,5.194
2023-01-04T16:38:36.264Z,2.386
2023-01-04T16:40:37.589Z,4.212
2023-01-04T16:42:39.085Z,4.352
2023-01-04T16:44:40.659Z,7.02
2023-01-04T16:46:42.452Z,8.985
2023-01-04T16:48:43.461Z,9.406
2023-01-04T16:50:44.561Z,4.633
2023-01-04T16:52:46.179Z,8.704
2023-01-04T16:54:47.990Z,7.3
2023-01-04T16:56:49.051Z,8.424
2023-01-04T16:58:50.220Z,12.074
2023-01-04T17:00:51.538Z,13.057
2023-01-04T17:04:54.869Z,12.074
2023-01-04T17:06:56.182Z,14.742
2023-01-04T17:08:58.082Z,7.441
2023-01-04T17:11:18.482Z,10.81
2023-01-04T17:15:46.800Z,6.458
2023-01-04T17:17:48.327Z,10.249
2023-01-04T17:19:49.853Z,22.744
2023-01-04T17:21:51.118Z,12.776
2023-01-04T17:23:52.142Z,8.002
2023-01-04T17:25:53.728Z,8.704
2023-01-04T17:27:55.134Z,7.722
2023-01-04T17:31:58.077Z,12.355
2023-01-04T17:33:59.903Z,7.722
2023-01-04T17:36:10.489Z,8.985
2023-01-04T17:38:02.598Z,12.355
2023-01-04T17:42:06.106Z,10.108
2023-01-04T17:44:07.867Z,10.389
2023-01-04T17:46:09.451Z,9.968
2023-01-04T17:48:10.522Z,7.3
2023-01-04T17:52:16.539Z,16.426
2023-01-04T17:54:13.960Z,8.424
2023-01-04T17:56:15.363Z,13.197
2023-01-04T17:58:19.914Z,10.81
2023-01-04T18:00:18.083Z,14.601
2023-01-04T18:02:19.350Z,16.146
2023-01-04T18:04:21.216Z,9.968
2023-01-04T18:06:25.987Z,10.389
2023-01-04T18:08:23.801Z,10.389
2023-01-04T18:10:40.680Z,13.478
2023-01-04T18:12:26.500Z,13.478
2023-01-04T18:14:28.449Z,7.3
2023-01-04T18:16:30.340Z,9.687
2023-01-04T18:18:31.741Z,13.057
2023-01-04T18:20:32.847Z,9.968
2023-01-04T18:22:34.223Z,15.865
2023-01-04T18:24:37.644Z,8.283
2023-01-04T18:28:38.672Z,13.197
2023-01-04T18:30:39.578Z,11.232
2023-01-04T18:32:41.295Z,12.776
2023-01-04T18:34:42.804Z,9.968
2023-01-04T18:36:43.831Z,12.916
2023-01-04T18:38:45.551Z,15.584
2023-01-04T18:40:47.055Z,17.55
2023-01-04T18:42:47.981Z,13.338
2023-01-04T18:44:50.073Z,8.704
2023-01-04T18:46:51.717Z,15.022
2023-01-04T18:48:52.704Z,6.598
2023-01-04T18:50:54.370Z,13.759
2023-01-04T18:52:55.763Z,12.636
2023-01-04T18:54:57.259Z,9.968
2023-01-04T18:57:00.911Z,13.057
2023-01-04T18:58:59.853Z,17.55
2023-01-04T19:01:01.581Z,12.776
2023-01-04T19:03:03.150Z,13.197
2023-01-04T19:05:04.112Z,18.532
2023-01-04T19:07:05.820Z,11.934
2023-01-04T19:09:07.360Z,22.464
2023-01-04T19:11:08.335Z,9.687
2023-01-04T19:13:09.971Z,12.074
2023-01-04T19:15:11.656Z,11.512
2023-01-04T19:17:13.419Z,9.547
2023-01-04T19:19:14.401Z,12.916
2023-01-04T19:23:16.729Z,11.653
2023-01-04T19:25:20.806Z,16.426
2023-01-04T19:27:19.655Z,12.636
2023-01-04T19:29:21.543Z,11.793
2023-01-04T19:33:24.422Z,12.495
2023-01-04T19:35:25.965Z,18.954
2023-01-04T19:37:27.746Z,15.865
2023-01-04T19:39:28.888Z,13.759
2023-01-04T19:41:33.701Z,12.074
2023-01-04T19:43:31.331Z,8.283
2023-01-04T19:45:33.076Z,12.636
2023-01-04T19:47:34.289Z,17.69
2023-01-04T19:49:36.073Z,13.197
2023-01-04T19:51:37.911Z,10.81
2023-01-04T19:53:39.790Z,13.197
2023-01-04T19:55:41.671Z,13.057
2023-01-04T19:57:43.208Z,15.303
2023-01-04T19:59:44.413Z,12.636
2023-01-04T20:01:46.108Z,15.444
2023-01-04T20:05:48.769Z,10.951
2023-01-04T20:07:50.545Z,16.146
2023-01-04T20:09:51.625Z,15.724
2023-01-04T20:11:52.959Z,11.793
2023-01-04T20:15:55.916Z,9.547
2023-01-04T20:17:56.863Z,11.512
2023-01-04T20:19:57.999Z,11.793
2023-01-04T20:21:59.588Z,11.653
2023-01-04T20:24:01.256Z,6.458
2023-01-04T20:28:04.021Z,9.968
2023-01-04T20:30:05.724Z,9.547
2023-01-04T20:32:06.828Z,11.793
2023-01-04T20:34:08.297Z,15.865
2023-01-04T20:36:09.560Z,7.722
2023-01-04T20:38:11.207Z,9.406
2023-01-04T20:40:12.663Z,11.232
2023-01-04T20:44:14.696Z,14.04
2023-01-04T20:46:15.729Z,15.022
2023-01-04T20:48:17.484Z,10.81
2023-01-04T20:50:18.731Z,15.444
2023-01-04T20:52:20.282Z,23.868
2023-01-04T20:54:22.018Z,18.532
2023-01-04T20:56:23.062Z,12.355
2023-01-04T20:58:24.890Z,13.057
2023-01-04T21:00:26.119Z,20.217
2023-01-04T21:02:27.618Z,14.742
2023-01-04T21:04:28.923Z,10.249
2023-01-04T21:06:30.432Z,16.848
2023-01-04T21:08:31.630Z,13.759
2023-01-04T21:10:33.382Z,17.69
2023-01-04T21:12:34.412Z,11.232
2023-01-04T21:14:35.659Z,15.022
2023-01-04T21:16:37.467Z,11.372
2023-01-04T21:18:39.226Z,20.217
2023-01-04T21:20:40.177Z,19.375
2023-01-04T21:22:42.081Z,14.882
2023-01-04T21:24:43.782Z,7.722
2023-01-04T21:26:44.875Z,12.074
2023-01-04T21:28:45.839Z,8.845
2023-01-04T21:30:47.640Z,11.372
2023-01-04T21:32:49.604Z,12.495
2023-01-04T21:34:51.446Z,11.232
2023-01-04T21:36:53.168Z,14.04
2023-01-04T21:38:54.762Z,14.04
2023-01-04T21:40:55.849Z,22.183
2023-01-04T21:42:56.953Z,12.636
2023-01-04T21:44:58.800Z,13.197
2023-01-04T21:47:00.595Z,17.269
2023-01-04T21:49:02.400Z,11.091
2023-01-04T21:51:03.498Z,10.53
2023-01-04T21:53:04.547Z,12.074
2023-01-04T21:57:06.388Z,5.896
2023-01-04T21:59:07.626Z,10.108
2023-01-04T22:01:09.525Z,13.899
2023-01-04T22:03:10.471Z,14.18
2023-01-04T22:05:12.356Z,16.005
2023-01-04T22:07:13.549Z,14.04
2023-01-04T22:09:15.259Z,7.722
2023-01-04T22:11:16.390Z,21.762
2023-01-04T22:13:17.852Z,12.636
2023-01-04T22:15:18.946Z,12.214
2023-01-04T22:17:20.722Z,10.53
2023-01-04T22:19:22.315Z,14.18
2023-01-04T22:21:23.638Z,14.742
2023-01-04T22:23:25.251Z,8.564
2023-01-04T22:25:27.050Z,11.372
2023-01-04T22:29:29.353Z,16.988
2023-01-04T22:31:30.963Z,9.828
2023-01-04T22:33:32.796Z,4.212
2023-01-04T22:35:33.836Z,18.673
2023-01-04T22:39:36.785Z,11.934
2023-01-04T22:41:38.343Z,12.214
2023-01-04T22:43:39.282Z,11.934
2023-01-04T22:45:41.133Z,7.16
2023-01-04T22:47:42.580Z,15.303
2023-01-04T22:51:45.249Z,11.372
2023-01-04T22:53:46.953Z,9.968
2023-01-04T22:56:17.463Z,10.389
2023-01-04T22:57:49.179Z,5.896
2023-01-04T23:01:52.039Z,11.512
2023-01-04T23:03:53.604Z,7.722
2023-01-04T23:05:54.490Z,15.865
2023-01-04T23:07:56.394Z,9.968
2023-01-04T23:11:59.072Z,15.724
2023-01-04T23:14:00.253Z,8.564
2023-01-04T23:16:01.669Z,13.197
2023-01-04T23:18:03.418Z,10.53
2023-01-04T23:20:09.372Z,11.232
2023-01-04T23:22:06.055Z,8.985
2023-01-04T23:24:07.272Z,9.968
2023-01-04T23:26:08.468Z,12.074
2023-01-04T23:28:09.699Z,11.934
2023-01-04T23:30:10.710Z,11.091
2023-01-04T23:32:11.938Z,13.618
2023-01-04T23:34:13.164Z,11.653
2023-01-04T23:36:14.668Z,13.478
2023-01-04T23:38:16.536Z,8.564
2023-01-04T23:40:18.292Z,9.968
2023-01-04T23:42:19.516Z,9.547
2023-01-04T23:46:22.054Z,13.057
2023-01-04T23:50:24.623Z,16.426
2023-01-04T23:52:26.508Z,14.882
2023-01-04T23:54:28.292Z,14.601
2023-01-04T23:56:29.389Z,12.776
2023-01-04T23:58:30.321Z,7.3
